DLH429 LIPX-EDDH
Flight info
| Callsign | DLH429 |
|---|---|
| Flight time | N/A |
| Altitude | 34000 |
| Route | OTZOM Y480 UPXUF L612 ADOSA DCT BORMI DCT OZE DCT NAXAV DCT BRENO M726 LASTO DCT ABGUS DCT DIRBO/N0403F230 T902 RARUP RARUP3D |
| Aircraft | A21N/M-SDE3FGHIRWY/LB1 |
Departure
| Time | N/A |
|---|---|
| Airport | Verona Villafranca Valerio Catullo Airport (LIPX) |
Arrival
| Time | 2026-02-18 09:41 |
|---|---|
| Airport | Hamburg Helmut Schmidt Airport (EDDH) |
| Time | Latitude | Longitude | Altitude | Speed | Heading |
|---|---|---|---|---|---|
| 2026-02-18 09:31 | 53.36807 | 9.67898 | 7305 ft | 246 kts | 233° |
| 2026-02-18 09:32 | 53.35709 | 9.65707 | 6803 ft | 244 kts | 235° |
| 2026-02-18 09:32 | 53.34938 | 9.63298 | 6274 ft | 234 kts | 268° |
| 2026-02-18 09:32 | 53.35200 | 9.60782 | 5712 ft | 219 kts | 308° |
| 2026-02-18 09:32 | 53.36266 | 9.59106 | 5231 ft | 211 kts | 335° |
| 2026-02-18 09:33 | 53.37594 | 9.58413 | 4892 ft | 208 kts | 358° |
| 2026-02-18 09:33 | 53.40458 | 9.59059 | 4322 ft | 207 kts | 11° |
| 2026-02-18 09:33 | 53.41877 | 9.59460 | 4287 ft | 207 kts | 10° |
| 2026-02-18 09:34 | 53.43274 | 9.59965 | 4244 ft | 208 kts | 24° |
| 2026-02-18 09:34 | 53.44454 | 9.61345 | 4059 ft | 210 kts | 45° |
| 2026-02-18 09:34 | 53.45441 | 9.63152 | 3751 ft | 209 kts | 47° |
| 2026-02-18 09:34 | 53.46375 | 9.64972 | 3468 ft | 207 kts | 49° |
| 2026-02-18 09:35 | 53.47296 | 9.66815 | 3196 ft | 207 kts | 49° |
| 2026-02-18 09:35 | 53.48209 | 9.68668 | 3007 ft | 206 kts | 50° |
| 2026-02-18 09:35 | 53.49119 | 9.70524 | 3006 ft | 207 kts | 49° |
| 2026-02-18 09:35 | 53.50025 | 9.72375 | 3003 ft | 207 kts | 49° |
| 2026-02-18 09:36 | 53.50937 | 9.74239 | 3037 ft | 202 kts | 50° |
| 2026-02-18 09:36 | 53.51790 | 9.75984 | 3083 ft | 181 kts | 49° |
| 2026-02-18 09:36 | 53.52551 | 9.77540 | 3038 ft | 162 kts | 49° |
| 2026-02-18 09:36 | 53.53229 | 9.78923 | 2891 ft | 151 kts | 49° |
| 2026-02-18 09:37 | 53.53894 | 9.80274 | 2674 ft | 150 kts | 49° |
| 2026-02-18 09:37 | 53.55181 | 9.82890 | 2287 ft | 143 kts | 49° |
| 2026-02-18 09:37 | 53.55810 | 9.84169 | 2079 ft | 142 kts | 49° |
| 2026-02-18 09:38 | 53.56440 | 9.85448 | 1870 ft | 142 kts | 49° |
| 2026-02-18 09:38 | 53.57061 | 9.86709 | 1671 ft | 141 kts | 49° |
| 2026-02-18 09:38 | 53.57690 | 9.87985 | 1472 ft | 141 kts | 49° |
| 2026-02-18 09:38 | 53.58308 | 9.89240 | 1278 ft | 140 kts | 49° |
| 2026-02-18 09:39 | 53.58929 | 9.90499 | 1083 ft | 140 kts | 49° |
| 2026-02-18 09:39 | 53.59547 | 9.91754 | 889 ft | 139 kts | 49° |
| 2026-02-18 09:39 | 53.60164 | 9.93005 | 693 ft | 139 kts | 49° |
| 2026-02-18 09:39 | 53.60774 | 9.94241 | 497 ft | 139 kts | 49° |
| 2026-02-18 09:40 | 53.61386 | 9.95483 | 301 ft | 138 kts | 49° |
| 2026-02-18 09:40 | 53.61993 | 9.96729 | 98 ft | 138 kts | 49° |
| 2026-02-18 09:40 | 53.62553 | 9.97843 | 67 ft | 102 kts | 51° |
| 2026-02-18 09:40 | 53.62905 | 9.98550 | 67 ft | 67 kts | 49° |
| 2026-02-18 09:41 | 53.63080 | 9.98988 | 67 ft | 34 kts | 78° |
| 2026-02-18 09:41 | 53.63089 | 9.99365 | 67 ft | 7 kts | 72° |
| 2026-02-18 09:41 | 53.63110 | 9.99439 | 67 ft | 8 kts | 53° |
| 2026-02-18 09:42 | 53.63153 | 9.99533 | 67 ft | 11 kts | 51° |
| 2026-02-18 09:42 | 53.63181 | 9.99590 | 67 ft | 0 kts | 50° |
| 2026-02-18 09:42 | 53.63192 | 9.99611 | 67 ft | 7 kts | 50° |
| 2026-02-18 09:43 | 53.63244 | 9.99707 | 67 ft | 14 kts | 44° |
| 2026-02-18 09:43 | 53.63311 | 9.99828 | 67 ft | 14 kts | 49° |
| 2026-02-18 09:43 | 53.63375 | 9.99955 | 67 ft | 15 kts | 50° |
| 2026-02-18 09:43 | 53.63425 | 10.00060 | 67 ft | 11 kts | 66° |
| 2026-02-18 09:44 | 53.63422 | 10.00131 | 67 ft | 2 kts | 112° |
| 2026-02-18 09:44 | 53.63413 | 10.00165 | 67 ft | 5 kts | 112° |
| 2026-02-18 09:44 | 53.63410 | 10.00253 | 67 ft | 9 kts | 86° |
| 2026-02-18 09:44 | 53.63413 | 10.00330 | 67 ft | 3 kts | 85° |
| 2026-02-18 09:45 | 53.63413 | 10.00332 | 67 ft | 0 kts | 85° |